Aérodrome :
LOGIN :

S'inscrire | Disclaimer

   EN    FR    IT 

 










Légende :    VFR   VFR Marginal   IFR   IFR Intensif   IFR Très Intensif
Visi : 
Plafond : 
>= 8 km
>= 3000ft
5 à 8 km
1000 à 3000 ft
1500m à 5 km
500 à 1000 ft
800 à 1500m
200 à 500 ft
< 800m
< 200 ft
Symboles :   Orages  Brouillard  Fortes neiges  Fortes précipitations  Vent > 20 kt
SIGMETs :   Divers  Orages  Givrage  Turbulence  Onde Orograph.  Cendres Volcan.






- Altitude de l'aérodrome : 38 ft
- Code IATA : BOH


EGHH - Bournemouth

DERNIER METAR :
  • 172020Z 22006KT 9999 -RA FEW025 13/10 Q1002

METARs EXPIRÉS :
  • 171950Z 22008KT 9999 -RA FEW025 SCT048 13/10 Q1002
  • 171920Z 22008KT 9999 SCT048 13/10 Q1002
  • 171850Z 22007KT 9999 FEW048 13/10 Q1003
  • 171820Z 22007KT 9999 FEW048 13/10 Q1003
  • 171750Z 22008KT 9999 FEW033 13/09 Q1003

TAF TAF EGHH
Valide du 17 à 21h jusqu'au 18 à 06h UTC


172002Z 1721/1806 20010KT 9999 SCT025
TEMPO 1721/1806 7000 SHRA
PROB40
TEMPO 1721/1805 21015G25KT 4000 +SHRA BKN013CB
BECMG 1803/1806 26010KT
ATIS : +44 1202 364 151
Météo : +44 1202 364 158 (TAF)



MET'MAP, la Météo Aéronautique d'un coup d'oeil ! - Copyright ORBIFLY Décembre 2007 - Disclaimer

ORBIFLY MET'MAP TEAM :

Programmation & Développement : Alexandra Zaïnal
Conception & Développement : Baudouin d'Aumeries
Co-Programmation & Développement : Marc-Olivier Méhu
Soutien technique & logistique : Manuel Goepfert

Contact : metmap@orbifly.com




SOURCES & CREDITS :

   NOAA